createdAt,value
2022-10-17T00:02:16.279Z,16.17
2022-10-17T00:07:47.802Z,14.73
2022-10-17T00:13:18.920Z,13.75
2022-10-17T00:18:50.143Z,14.13
2022-10-17T00:24:20.744Z,12.88
2022-10-17T00:29:52.347Z,13.45
2022-10-17T00:35:23.514Z,16.33
2022-10-17T00:46:34.660Z,11.15
2022-10-17T00:52:12.916Z,11.65
2022-10-17T00:57:45.904Z,11.75
2022-10-17T01:03:17.337Z,14.68
2022-10-17T01:08:48.363Z,11.93
2022-10-17T01:14:29.152Z,9.65
2022-10-17T01:20:19.120Z,14.90
2022-10-17T01:25:57.371Z,13.15
2022-10-17T01:32:10.619Z,14.57
2022-10-17T01:37:48.909Z,14.45
2022-10-17T01:43:24.889Z,15.88
2022-10-17T01:48:58.809Z,16.73
2022-10-17T01:54:48.743Z,15.13
2022-10-17T02:00:23.749Z,14.35
2022-10-17T02:05:57.006Z,17.92
2022-10-17T02:11:28.549Z,16.67
2022-10-17T02:17:11.595Z,14.98
2022-10-17T02:22:57.816Z,14.97
2022-10-17T02:28:46.149Z,16.85
2022-10-17T02:34:29.622Z,20.17
2022-10-17T02:45:36.261Z,17.83
2022-10-17T02:51:27.115Z,17.85
2022-10-17T02:57:03.742Z,17.98
2022-10-17T03:02:43.671Z,20.30
2022-10-17T03:08:15.411Z,19.00
2022-10-17T03:13:46.639Z,19.08
2022-10-17T03:19:18.141Z,18.15
2022-10-17T03:24:49.431Z,18.65
2022-10-17T03:30:21.152Z,17.10
2022-10-17T03:35:54.865Z,17.25
2022-10-17T03:41:26.462Z,18.83
2022-10-17T03:46:58.861Z,19.40
2022-10-17T03:52:30.295Z,18.65
2022-10-17T03:58:01.547Z,18.63
2022-10-17T04:03:33.704Z,18.65
2022-10-17T04:09:06.346Z,18.30
2022-10-17T04:14:55.551Z,18.90
2022-10-17T04:20:28.389Z,19.95
2022-10-17T04:26:04.813Z,18.98
2022-10-17T04:31:37.464Z,18.65
2022-10-17T04:37:20.393Z,19.17
2022-10-17T04:42:54.279Z,17.65
2022-10-17T04:48:31.518Z,18.10
2022-10-17T04:54:02.690Z,18.92
2022-10-17T04:59:34.944Z,17.85
2022-10-17T05:05:39.193Z,18.73
2022-10-17T05:11:25.985Z,19.75
2022-10-17T05:16:57.520Z,18.27
2022-10-17T05:22:30.621Z,19.33
2022-10-17T05:28:02.255Z,17.92
2022-10-17T05:33:34.484Z,19.80
2022-10-17T05:39:05.833Z,18.50
2022-10-17T05:44:40.011Z,16.70
2022-10-17T05:50:12.645Z,20.40
2022-10-17T05:56:09.469Z,18.88
2022-10-17T06:01:41.524Z,18.27
2022-10-17T06:07:13.529Z,19.00
2022-10-17T06:12:47.164Z,19.70
2022-10-17T06:18:19.271Z,18.17
2022-10-17T06:23:51.513Z,18.05
2022-10-17T06:29:33.368Z,17.10
2022-10-17T06:35:05.281Z,17.40
2022-10-17T06:40:36.724Z,18.35
2022-10-17T06:46:07.989Z,17.38
2022-10-17T06:51:43.500Z,16.65
2022-10-17T06:57:17.964Z,17.73
2022-10-17T07:02:57.280Z,19.40
2022-10-17T07:08:29.050Z,18.38
2022-10-17T07:13:59.947Z,17.42
2022-10-17T07:19:31.638Z,18.60
2022-10-17T07:25:02.785Z,17.13
2022-10-17T07:30:40.236Z,19.23
2022-10-17T07:36:16.087Z,18.63
2022-10-17T07:41:49.577Z,20.33
2022-10-17T07:47:22.152Z,18.98
2022-10-17T07:52:54.482Z,19.70
2022-10-17T07:58:26.245Z,22.08
2022-10-17T08:03:57.382Z,21.05
2022-10-17T08:09:28.302Z,19.75
2022-10-17T08:14:59.192Z,21.25
2022-10-17T08:20:30.171Z,21.40
2022-10-17T08:26:03.479Z,22.65
2022-10-17T08:31:34.361Z,20.13
2022-10-17T08:37:05.375Z,21.90
2022-10-17T08:42:46.743Z,20.92
2022-10-17T08:48:19.699Z,20.70
2022-10-17T08:54:06.008Z,19.48
2022-10-17T08:59:37.127Z,20.13
2022-10-17T09:05:35.473Z,23.77
2022-10-17T09:11:25.209Z,20.95
2022-10-17T09:17:37.808Z,22.20
2022-10-17T09:23:20.603Z,22.10
2022-10-17T09:28:59.490Z,22.30
2022-10-17T09:34:32.764Z,23.13
2022-10-17T09:40:07.575Z,20.70
2022-10-17T09:45:44.666Z,22.42
2022-10-17T09:51:25.692Z,22.02
2022-10-17T09:57:04.659Z,23.55
2022-10-17T10:02:41.297Z,23.00
2022-10-17T10:08:17.728Z,22.63
2022-10-17T10:13:49.922Z,21.23
2022-10-17T10:19:33.368Z,22.38
2022-10-17T10:25:08.952Z,20.95
2022-10-17T10:30:40.145Z,18.73
2022-10-17T10:36:11.756Z,21.52
2022-10-17T10:41:47.764Z,18.70
2022-10-17T10:47:29.013Z,22.80
2022-10-17T10:53:37.313Z,21.27
2022-10-17T10:59:08.525Z,20.20
2022-10-17T11:05:11.180Z,20.55
2022-10-17T11:10:52.526Z,24.08
2022-10-17T11:16:29.511Z,18.38
2022-10-17T11:22:24.012Z,19.95
2022-10-17T11:28:02.315Z,19.83
2022-10-17T11:33:45.420Z,21.20
2022-10-17T11:39:29.890Z,17.77
2022-10-17T11:45:08.255Z,19.77
2022-10-17T11:56:41.872Z,18.02
2022-10-17T12:02:30.683Z,19.17
2022-10-17T12:08:07.766Z,18.80
2022-10-17T12:13:41.473Z,19.23
2022-10-17T12:19:22.434Z,20.75
2022-10-17T12:25:02.621Z,18.48
2022-10-17T12:30:34.906Z,18.45
2022-10-17T12:36:27.076Z,19.80
2022-10-17T12:41:58.055Z,20.17
2022-10-17T12:47:38.562Z,18.45
2022-10-17T12:53:18.535Z,19.67
2022-10-17T12:58:51.822Z,16.25
2022-10-17T13:04:22.893Z,17.48
2022-10-17T13:09:54.084Z,17.48
2022-10-17T13:15:25.602Z,20.08
2022-10-17T13:20:58.927Z,15.68
2022-10-17T13:26:30.018Z,18.95
2022-10-17T13:32:04.300Z,18.05
2022-10-17T13:37:36.403Z,17.25
2022-10-17T13:43:19.489Z,17.73
2022-10-17T13:48:50.773Z,17.55
2022-10-17T13:54:44.573Z,17.27
2022-10-17T14:00:21.408Z,16.67
2022-10-17T14:06:12.795Z,17.88
2022-10-17T14:11:44.985Z,18.92
2022-10-17T14:17:25.741Z,17.83
2022-10-17T14:23:22.072Z,16.17
2022-10-17T14:28:52.035Z,18.05
2022-10-17T14:34:28.501Z,16.98
2022-10-17T14:40:01.427Z,16.50
2022-10-17T14:45:37.420Z,16.10
2022-10-17T14:51:17.871Z,16.60
2022-10-17T14:56:52.793Z,20.20
2022-10-17T15:02:25.715Z,17.45
2022-10-17T15:07:56.967Z,16.98
2022-10-17T15:13:29.680Z,20.50
2022-10-17T15:19:02.375Z,16.88
2022-10-17T15:24:33.543Z,15.60
2022-10-17T15:30:06.798Z,15.40
2022-10-17T15:35:38.143Z,17.35
2022-10-17T15:41:11.173Z,16.65
2022-10-17T15:46:43.213Z,15.35
2022-10-17T15:52:14.291Z,15.48
2022-10-17T15:57:46.756Z,15.80
2022-10-17T16:03:18.081Z,17.70
2022-10-17T16:08:50.322Z,17.17
2022-10-17T16:14:21.156Z,18.25
2022-10-17T16:19:52.268Z,17.10
2022-10-17T16:25:29.864Z,18.52
2022-10-17T16:31:01.173Z,16.35
2022-10-17T16:36:32.643Z,14.70
2022-10-17T16:42:03.651Z,17.50
2022-10-17T16:47:34.793Z,17.77
2022-10-17T16:53:06.073Z,16.20
2022-10-17T16:58:37.401Z,19.55
2022-10-17T17:04:09.604Z,17.10
2022-10-17T17:09:40.826Z,17.67
2022-10-17T17:15:11.908Z,21.33
2022-10-17T17:20:43.046Z,17.70
2022-10-17T17:26:17.380Z,19.20
2022-10-17T17:31:48.396Z,20.45
2022-10-17T17:37:19.686Z,19.58
2022-10-17T17:42:50.953Z,18.33
2022-10-17T17:48:22.287Z,19.42
2022-10-17T17:53:54.036Z,19.00
2022-10-17T17:59:25.392Z,21.08
2022-10-17T18:04:56.780Z,20.55
2022-10-17T18:10:29.419Z,19.30
2022-10-17T18:16:01.735Z,19.13
2022-10-17T18:21:33.169Z,20.87
2022-10-17T18:27:04.481Z,20.48
2022-10-17T18:32:35.613Z,19.40
2022-10-17T18:38:06.877Z,20.92
2022-10-17T18:43:39.585Z,20.58
2022-10-17T18:49:12.861Z,19.83
2022-10-17T18:54:43.798Z,18.75
2022-10-17T19:00:15.911Z,19.98
2022-10-17T19:05:47.817Z,21.33
2022-10-17T19:11:22.272Z,18.30
2022-10-17T19:16:53.489Z,18.02
2022-10-17T19:22:24.862Z,19.42
2022-10-17T19:27:58.074Z,22.65
2022-10-17T19:39:10.363Z,18.67
2022-10-17T19:44:41.209Z,20.35
2022-10-17T19:50:12.108Z,17.13
2022-10-17T19:55:43.628Z,20.23
2022-10-17T20:01:17.936Z,19.60
2022-10-17T20:06:49.451Z,20.33
2022-10-17T20:12:20.371Z,17.90
2022-10-17T20:17:51.374Z,17.67
2022-10-17T20:23:23.100Z,19.88
2022-10-17T20:28:54.986Z,19.52
2022-10-17T20:34:26.167Z,18.88
2022-10-17T20:40:22.618Z,17.77
2022-10-17T20:45:51.117Z,16.40
2022-10-17T20:51:23.202Z,16.42
2022-10-17T20:56:55.209Z,17.25
2022-10-17T21:02:26.841Z,17.58
2022-10-17T21:07:57.899Z,16.08
2022-10-17T21:13:29.039Z,15.85
2022-10-17T21:19:00.482Z,15.95
2022-10-17T21:24:31.852Z,15.98
2022-10-17T21:30:03.603Z,19.73
2022-10-17T21:35:34.840Z,18.85
2022-10-17T21:41:08.025Z,16.05
2022-10-17T21:46:39.140Z,18.27
2022-10-17T21:52:10.180Z,16.05
2022-10-17T21:57:41.429Z,16.60
2022-10-17T22:03:15.503Z,15.43
2022-10-17T22:08:46.752Z,17.27
2022-10-17T22:14:19.976Z,17.55
2022-10-17T22:19:51.186Z,17.05
2022-10-17T22:25:22.359Z,15.63
2022-10-17T22:30:53.697Z,16.98
2022-10-17T22:36:25.046Z,15.50
2022-10-17T22:41:56.347Z,15.82
2022-10-17T22:47:27.444Z,16.23
2022-10-17T22:52:58.618Z,16.65
2022-10-17T22:58:31.477Z,16.02
2022-10-17T23:04:02.541Z,17.07
2022-10-17T23:09:33.422Z,16.52
2022-10-17T23:15:05.085Z,16.00
2022-10-17T23:20:36.930Z,19.25
2022-10-17T23:26:10.723Z,14.88
2022-10-17T23:31:41.778Z,16.88
2022-10-17T23:37:12.907Z,16.20
2022-10-17T23:42:44.137Z,15.52
2022-10-17T23:48:14.932Z,16.25
2022-10-17T23:53:45.792Z,16.48
2022-10-17T23:59:16.997Z,16.83
